DNKN

Mallam Aminu International Airport

Kano, Nigeria
METAR DNKN 201300Z 04010KT 8000 NSC 37/09 Q1012 NOSIG
Observed Flight Rules
Oct-20 @ 13:00 UTC (47 minutes ago) Marginal Visual Flight Rules
Wind Visibility Clouds
40° at 10 knots 7,998 meters
  • Clear skies
Temperatures Readings
Current 37°C / 99°F
Dewpoint 9°C / 48°F
Humidity 18%
Altimeter 29.88" Hg
Pressure 1012 hPa
Elevation 481
METAR DNKN 201300Z 04010KT 8000 NSC 37/09 Q1012 NOSIG
Observed Flight Rules
Oct-20 @ 13:00 UTC
(47 minutes ago)
MVFR
Wind Visibility
40° at 10 knots 7,998 meters
Clouds
  • Clear skies
Temperature Dewpoint
37°C / 99°F 9°C / 48°F
Humidity Altimeter Pressure
18% 29.88" Hg 1012 hPa